createdAt,value
2022-08-29T00:00:20.269Z,17.68
2022-08-29T00:03:08.459Z,17.81
2022-08-29T00:05:56.638Z,17.79
2022-08-29T00:08:44.833Z,17.78
2022-08-29T00:11:32.132Z,17.77
2022-08-29T00:14:23.239Z,17.64
2022-08-29T00:17:10.981Z,17.68
2022-08-29T00:19:58.231Z,17.66
2022-08-29T00:22:45.568Z,17.69
2022-08-29T00:25:32.929Z,17.42
2022-08-29T00:28:20.752Z,17.27
2022-08-29T00:31:08.148Z,17.19
2022-08-29T00:33:57.526Z,17.08
2022-08-29T00:36:46.172Z,17.00
2022-08-29T00:39:36.621Z,16.99
2022-08-29T00:42:24.041Z,16.90
2022-08-29T00:45:13.094Z,16.85
2022-08-29T00:48:05.146Z,16.81
2022-08-29T00:50:56.494Z,16.84
2022-08-29T00:53:47.987Z,16.82
2022-08-29T00:56:38.029Z,16.68
2022-08-29T00:59:31.713Z,16.86
2022-08-29T01:02:19.305Z,16.97
2022-08-29T01:05:08.674Z,16.99
2022-08-29T01:07:56.278Z,17.00
2022-08-29T01:11:02.800Z,16.90
2022-08-29T01:13:51.629Z,16.81
2022-08-29T01:16:39.453Z,16.70
2022-08-29T01:19:52.118Z,16.47
2022-08-29T01:23:00.892Z,16.45
2022-08-29T01:25:51.125Z,16.26
2022-08-29T01:28:42.923Z,16.39
2022-08-29T01:31:55.800Z,16.52
2022-08-29T01:34:45.537Z,16.60
2022-08-29T01:37:35.590Z,16.41
2022-08-29T01:40:28.618Z,16.34
2022-08-29T01:43:15.924Z,16.40
2022-08-29T01:46:03.663Z,16.33
2022-08-29T01:48:51.188Z,16.25
2022-08-29T01:51:39.423Z,16.17
2022-08-29T01:54:27.076Z,16.02
2022-08-29T01:57:16.104Z,15.85
2022-08-29T02:00:05.798Z,15.72
2022-08-29T02:02:53.434Z,15.86
2022-08-29T02:05:40.710Z,15.80
2022-08-29T02:08:28.757Z,15.81
2022-08-29T02:11:17.262Z,15.87
2022-08-29T02:14:04.632Z,16.03
2022-08-29T02:16:51.954Z,16.12
2022-08-29T02:19:41.512Z,16.16
2022-08-29T02:22:28.596Z,16.14
2022-08-29T02:25:37.486Z,16.11
2022-08-29T02:28:24.801Z,16.16
2022-08-29T02:31:12.302Z,15.99
2022-08-29T02:33:59.702Z,15.94
2022-08-29T02:36:49.082Z,15.82
2022-08-29T02:39:36.669Z,15.80
2022-08-29T02:42:23.968Z,15.65
2022-08-29T02:45:11.821Z,15.81
2022-08-29T02:48:00.541Z,15.73
2022-08-29T02:50:50.563Z,15.50
2022-08-29T02:53:37.813Z,15.57
2022-08-29T02:56:25.808Z,15.70
2022-08-29T02:59:14.158Z,15.75
2022-08-29T03:02:02.353Z,15.87
2022-08-29T03:04:49.741Z,15.86
2022-08-29T03:07:37.072Z,15.83
2022-08-29T03:10:25.324Z,15.90
2022-08-29T03:13:13.213Z,15.81
2022-08-29T03:16:02.261Z,15.70
2022-08-29T03:18:49.952Z,15.76
2022-08-29T03:21:37.208Z,15.70
2022-08-29T03:24:26.864Z,15.41
2022-08-29T03:27:14.481Z,15.25
2022-08-29T03:30:02.178Z,15.29
2022-08-29T03:32:49.468Z,15.37
2022-08-29T03:35:36.800Z,15.27
2022-08-29T03:38:24.185Z,15.13
2022-08-29T03:41:12.629Z,15.28
2022-08-29T03:44:00.152Z,15.23
2022-08-29T03:46:47.537Z,15.17
2022-08-29T03:49:35.372Z,15.15
2022-08-29T03:52:22.653Z,15.16
2022-08-29T03:55:12.428Z,15.31
2022-08-29T03:57:59.740Z,15.34
2022-08-29T04:00:47.030Z,15.22
2022-08-29T04:03:34.308Z,15.27
2022-08-29T04:06:23.496Z,15.39
2022-08-29T04:09:10.741Z,15.36
2022-08-29T04:11:58.664Z,15.36
2022-08-29T04:14:45.933Z,15.13
2022-08-29T04:17:34.149Z,14.96
2022-08-29T04:20:25.608Z,14.89
2022-08-29T04:23:14.465Z,15.07
2022-08-29T04:26:19.187Z,14.91
2022-08-29T04:29:11.890Z,14.85
2022-08-29T04:31:59.253Z,14.93
2022-08-29T04:34:47.157Z,14.98
2022-08-29T04:37:34.941Z,15.00
2022-08-29T04:40:23.245Z,15.06
2022-08-29T04:43:10.865Z,15.08
2022-08-29T04:45:58.444Z,15.18
2022-08-29T04:48:45.749Z,15.18
2022-08-29T04:51:35.437Z,15.16
2022-08-29T04:54:23.180Z,15.12
2022-08-29T04:57:10.468Z,15.19
2022-08-29T04:59:59.115Z,15.20
2022-08-29T05:02:47.966Z,15.28
2022-08-29T05:05:35.300Z,15.31
2022-08-29T05:08:23.188Z,15.38
2022-08-29T05:11:14.788Z,15.44
2022-08-29T05:14:10.309Z,15.28
2022-08-29T05:16:57.552Z,15.28
2022-08-29T05:19:45.141Z,15.34
2022-08-29T05:22:33.253Z,15.29
2022-08-29T05:25:20.657Z,15.33
2022-08-29T05:28:11.131Z,15.32
2022-08-29T05:30:59.949Z,15.44
2022-08-29T05:33:47.231Z,15.56
2022-08-29T05:36:34.617Z,15.62
2022-08-29T05:39:21.897Z,15.62
2022-08-29T05:42:11.751Z,15.61
2022-08-29T05:44:59.085Z,15.67
2022-08-29T05:47:46.381Z,15.71
2022-08-29T05:50:44.244Z,15.86
2022-08-29T05:53:31.572Z,15.93
2022-08-29T05:56:23.445Z,15.92
2022-08-29T05:59:12.553Z,16.07
2022-08-29T06:02:01.484Z,16.14
2022-08-29T06:04:48.881Z,16.31
2022-08-29T06:07:36.265Z,16.38
2022-08-29T06:10:23.532Z,16.48
2022-08-29T06:13:11.861Z,16.63
2022-08-29T06:15:59.187Z,16.79
2022-08-29T06:18:47.193Z,16.95
2022-08-29T06:21:34.490Z,16.89
2022-08-29T06:24:21.739Z,16.97
2022-08-29T06:27:09.033Z,17.11
2022-08-29T06:30:00.118Z,17.21
2022-08-29T06:32:49.080Z,17.31
2022-08-29T06:35:36.536Z,17.33
2022-08-29T06:38:23.805Z,17.18
2022-08-29T06:41:14.336Z,16.98
2022-08-29T06:44:02.412Z,16.92
2022-08-29T06:46:49.893Z,17.03
2022-08-29T06:49:37.194Z,17.12
2022-08-29T06:52:24.477Z,17.17
2022-08-29T06:55:12.841Z,17.08
2022-08-29T06:58:00.152Z,17.13
2022-08-29T07:00:49.869Z,17.21
2022-08-29T07:03:37.509Z,17.22
2022-08-29T07:06:25.749Z,17.32
2022-08-29T07:09:13.573Z,17.38
2022-08-29T07:12:00.884Z,17.40
2022-08-29T07:14:48.124Z,17.33
2022-08-29T07:17:40.347Z,17.35
2022-08-29T07:20:27.614Z,17.43
2022-08-29T07:23:15.342Z,17.42
2022-08-29T07:26:30.557Z,17.54
2022-08-29T07:29:20.012Z,17.57
2022-08-29T07:32:07.474Z,17.62
2022-08-29T07:34:56.301Z,17.67
2022-08-29T07:37:47.728Z,17.73
2022-08-29T07:40:37.593Z,17.75
2022-08-29T07:43:27.817Z,17.82
2022-08-29T07:46:17.027Z,17.92
2022-08-29T07:49:05.101Z,17.97
2022-08-29T07:51:54.218Z,18.01
2022-08-29T07:54:41.469Z,18.09
2022-08-29T07:57:28.740Z,18.16
2022-08-29T08:00:16.200Z,18.23
2022-08-29T08:03:03.603Z,18.20
2022-08-29T08:05:50.933Z,18.14
2022-08-29T08:08:39.510Z,18.24
2022-08-29T08:11:27.490Z,18.37
2022-08-29T08:14:14.807Z,18.33
2022-08-29T08:17:02.935Z,18.28
2022-08-29T08:19:50.189Z,18.28
2022-08-29T08:22:37.675Z,18.29
2022-08-29T08:25:26.079Z,18.32
2022-08-29T08:28:14.343Z,18.38
2022-08-29T08:31:06.289Z,18.35
2022-08-29T08:33:54.313Z,18.39
2022-08-29T08:36:44.669Z,18.52
2022-08-29T08:39:31.989Z,18.63
2022-08-29T08:42:32.348Z,18.72
2022-08-29T08:45:26.783Z,18.75
2022-08-29T08:48:23.299Z,18.78
2022-08-29T08:51:19.971Z,18.81
2022-08-29T08:54:14.784Z,18.80
2022-08-29T08:57:08.645Z,18.82
2022-08-29T08:59:58.881Z,18.87
2022-08-29T09:03:05.025Z,19.00
2022-08-29T09:06:21.220Z,19.10
2022-08-29T09:09:43.219Z,19.17
2022-08-29T09:13:14.757Z,19.24
2022-08-29T09:16:08.057Z,19.32
2022-08-29T09:19:03.867Z,19.39
2022-08-29T09:21:55.226Z,19.42
2022-08-29T09:25:12.909Z,19.43
2022-08-29T09:28:00.402Z,19.40
2022-08-29T09:31:24.662Z,19.42
2022-08-29T09:34:21.666Z,19.52
2022-08-29T09:37:23.016Z,19.57
2022-08-29T09:40:16.765Z,19.58
2022-08-29T09:43:07.854Z,19.62
2022-08-29T09:46:05.988Z,19.67
2022-08-29T09:49:05.394Z,19.74
2022-08-29T09:51:53.004Z,19.78
2022-08-29T09:54:42.617Z,19.78
2022-08-29T09:57:31.330Z,19.77
2022-08-29T10:00:25.441Z,19.81
2022-08-29T10:03:23.546Z,20.00
2022-08-29T10:06:17.176Z,20.07
2022-08-29T10:09:26.637Z,20.13
2022-08-29T10:12:19.948Z,20.19
2022-08-29T10:15:23.622Z,20.27
2022-08-29T10:18:39.432Z,20.29
2022-08-29T10:21:47.006Z,20.20
2022-08-29T10:24:40.040Z,20.27
2022-08-29T10:27:34.242Z,20.31
2022-08-29T10:30:26.633Z,20.34
2022-08-29T10:33:19.957Z,20.40
2022-08-29T10:36:25.526Z,20.48
2022-08-29T10:39:16.596Z,20.59
2022-08-29T10:42:15.981Z,20.66
2022-08-29T10:45:06.121Z,20.65
2022-08-29T10:48:11.253Z,20.65
2022-08-29T10:51:06.399Z,20.70
2022-08-29T10:54:35.773Z,20.63
2022-08-29T10:57:35.216Z,20.62
2022-08-29T11:00:28.672Z,20.62
2022-08-29T11:03:42.589Z,20.63
2022-08-29T11:06:42.937Z,20.66
2022-08-29T11:09:44.153Z,20.69
2022-08-29T11:13:06.218Z,20.67
2022-08-29T11:16:00.518Z,20.77
2022-08-29T11:19:05.321Z,20.87
2022-08-29T11:21:56.570Z,20.91
2022-08-29T11:24:47.249Z,20.93
2022-08-29T11:28:00.627Z,20.96
2022-08-29T11:31:06.193Z,20.97
2022-08-29T11:34:17.819Z,21.02
2022-08-29T11:37:28.859Z,21.01
2022-08-29T11:40:48.046Z,21.09
2022-08-29T11:43:42.217Z,21.12
2022-08-29T11:46:40.758Z,21.26
2022-08-29T11:49:31.961Z,21.33
2022-08-29T11:52:23.789Z,21.40
2022-08-29T11:55:28.317Z,21.44
2022-08-29T11:58:15.505Z,21.50
2022-08-29T12:01:03.006Z,21.51
2022-08-29T12:03:56.093Z,21.57
2022-08-29T12:07:01.475Z,21.65
2022-08-29T12:09:53.686Z,21.59
2022-08-29T12:12:45.782Z,21.54
2022-08-29T12:15:32.992Z,21.54
2022-08-29T12:18:20.177Z,21.58
2022-08-29T12:21:34.110Z,21.60
2022-08-29T12:24:36.259Z,21.75
2022-08-29T12:27:45.066Z,21.84
2022-08-29T12:30:45.530Z,21.88
2022-08-29T12:33:51.501Z,21.92
2022-08-29T12:36:56.681Z,21.93
2022-08-29T12:39:52.098Z,22.02
2022-08-29T12:42:46.370Z,22.11
2022-08-29T12:45:36.042Z,22.18
2022-08-29T12:48:33.234Z,22.20
2022-08-29T12:51:42.760Z,22.15
2022-08-29T12:54:35.043Z,22.30
2022-08-29T12:57:36.765Z,22.49
2022-08-29T13:00:28.416Z,22.57
2022-08-29T13:03:20.991Z,22.67
2022-08-29T13:06:13.605Z,22.66
2022-08-29T13:09:01.359Z,22.79
2022-08-29T13:11:48.629Z,22.83
2022-08-29T13:14:56.421Z,22.90
2022-08-29T13:17:47.148Z,22.89
2022-08-29T13:21:08.416Z,22.90
2022-08-29T13:24:13.427Z,23.01
2022-08-29T13:27:04.783Z,23.15
2022-08-29T13:30:00.468Z,23.29
2022-08-29T13:32:50.028Z,23.21
2022-08-29T13:35:37.412Z,23.18
2022-08-29T13:38:26.792Z,23.25
2022-08-29T13:41:27.618Z,23.38
2022-08-29T13:44:19.749Z,23.57
2022-08-29T13:47:19.496Z,23.69
2022-08-29T13:50:09.964Z,23.83
2022-08-29T13:52:57.859Z,24.08
2022-08-29T13:55:45.164Z,24.26
2022-08-29T13:58:32.419Z,24.22
2022-08-29T14:01:30.336Z,24.23
2022-08-29T14:04:37.540Z,24.12
2022-08-29T14:07:29.766Z,24.03
2022-08-29T14:10:17.764Z,24.18
2022-08-29T14:13:06.139Z,24.10
2022-08-29T14:15:53.516Z,24.09
2022-08-29T14:18:40.916Z,24.14
2022-08-29T14:21:28.257Z,24.12
2022-08-29T14:24:15.777Z,23.90
2022-08-29T14:27:04.768Z,24.10
2022-08-29T14:29:53.006Z,24.14
2022-08-29T14:32:40.577Z,24.17
2022-08-29T14:35:31.708Z,24.23
2022-08-29T14:38:19.465Z,24.33
2022-08-29T14:41:06.817Z,24.41
2022-08-29T14:43:54.232Z,24.48
2022-08-29T14:46:41.551Z,24.42
2022-08-29T14:49:28.879Z,24.36
2022-08-29T14:52:16.432Z,24.20
2022-08-29T14:55:04.193Z,24.06
2022-08-29T14:57:51.768Z,24.03
2022-08-29T15:00:39.112Z,24.13
2022-08-29T15:03:26.547Z,24.25
2022-08-29T15:06:14.368Z,24.43
2022-08-29T15:09:01.666Z,24.50
2022-08-29T15:11:48.929Z,24.55
2022-08-29T15:14:36.284Z,24.51
2022-08-29T15:17:24.501Z,24.44
2022-08-29T15:23:21.604Z,24.20
2022-08-29T15:26:08.832Z,24.14
2022-08-29T15:28:56.092Z,24.11
2022-08-29T15:31:43.480Z,24.06
2022-08-29T15:34:31.254Z,24.03
2022-08-29T15:37:18.704Z,24.03
2022-08-29T15:40:12.821Z,24.00
2022-08-29T15:43:01.874Z,23.96
2022-08-29T15:45:49.143Z,23.99
2022-08-29T15:48:37.326Z,24.01
2022-08-29T15:51:24.576Z,24.04
2022-08-29T15:54:12.327Z,24.08
2022-08-29T15:56:59.603Z,24.13
2022-08-29T15:59:58.012Z,24.22
2022-08-29T16:02:46.185Z,24.35
2022-08-29T16:05:35.677Z,24.41
2022-08-29T16:08:22.804Z,24.46
2022-08-29T16:11:16.861Z,24.38
2022-08-29T16:14:41.048Z,24.35
2022-08-29T16:17:14.019Z,24.36
2022-08-29T16:20:02.288Z,24.42
2022-08-29T16:22:49.617Z,24.36
2022-08-29T16:25:37.553Z,24.34
2022-08-29T16:28:24.799Z,24.24
2022-08-29T16:31:12.726Z,24.12
2022-08-29T16:34:00.068Z,24.14
2022-08-29T16:36:47.401Z,24.14
2022-08-29T16:39:34.677Z,24.22
2022-08-29T16:42:21.988Z,24.23
2022-08-29T16:45:11.242Z,24.20
2022-08-29T16:47:59.470Z,24.14
2022-08-29T16:50:47.056Z,24.20
2022-08-29T16:53:38.654Z,24.22
2022-08-29T16:56:27.677Z,24.12
2022-08-29T16:59:15.160Z,24.06
2022-08-29T17:02:03.233Z,24.03
2022-08-29T17:04:51.217Z,24.03
2022-08-29T17:07:38.436Z,23.96
2022-08-29T17:10:25.693Z,23.91
2022-08-29T17:13:12.998Z,23.89
2022-08-29T17:16:01.793Z,23.83
2022-08-29T17:18:49.268Z,23.81
2022-08-29T17:21:36.729Z,23.78
2022-08-29T17:24:24.845Z,23.74
2022-08-29T17:27:17.100Z,23.68
2022-08-29T17:30:07.110Z,23.61
2022-08-29T17:32:54.388Z,23.53
2022-08-29T17:35:41.631Z,23.49
2022-08-29T17:38:28.961Z,23.46
2022-08-29T17:41:21.077Z,23.44
2022-08-29T17:44:09.959Z,23.36
2022-08-29T17:46:57.787Z,23.30
2022-08-29T17:49:45.033Z,23.21
2022-08-29T17:52:33.179Z,23.13
2022-08-29T17:55:20.640Z,23.12
2022-08-29T17:58:07.977Z,23.08
2022-08-29T18:00:55.305Z,23.04
2022-08-29T18:03:44.397Z,22.84
2022-08-29T18:06:32.473Z,22.93
2022-08-29T18:09:22.284Z,22.89
2022-08-29T18:12:09.542Z,22.84
2022-08-29T18:14:56.867Z,22.79
2022-08-29T18:17:45.287Z,22.74
2022-08-29T18:20:32.819Z,22.69
2022-08-29T18:23:20.144Z,22.68
2022-08-29T18:26:07.409Z,22.63
2022-08-29T18:28:55.502Z,22.58
2022-08-29T18:31:42.949Z,22.53
2022-08-29T18:34:30.245Z,22.48
2022-08-29T18:37:17.504Z,22.45
2022-08-29T18:40:06.058Z,22.41
2022-08-29T18:42:53.313Z,22.35
2022-08-29T18:45:41.490Z,22.32
2022-08-29T18:48:29.997Z,22.26
2022-08-29T18:51:17.486Z,22.21
2022-08-29T18:54:04.816Z,22.13
2022-08-29T18:56:52.099Z,22.07
2022-08-29T18:59:40.269Z,22.02
2022-08-29T19:02:28.161Z,21.99
2022-08-29T19:05:16.491Z,21.92
2022-08-29T19:08:04.473Z,21.86
2022-08-29T19:10:55.270Z,21.80
2022-08-29T19:13:43.277Z,21.78
2022-08-29T19:16:31.741Z,21.71
2022-08-29T19:19:19.004Z,21.65
2022-08-29T19:22:06.256Z,21.59
2022-08-29T19:24:53.532Z,21.53
2022-08-29T19:27:43.974Z,21.47
2022-08-29T19:30:32.296Z,21.52
2022-08-29T19:33:20.294Z,21.50
2022-08-29T19:36:09.269Z,21.50
2022-08-29T19:38:56.523Z,21.43
2022-08-29T19:41:44.093Z,21.44
2022-08-29T19:44:31.329Z,21.43
2022-08-29T19:47:21.636Z,21.40
2022-08-29T19:50:11.977Z,21.17
2022-08-29T19:53:00.348Z,21.35
2022-08-29T19:55:48.391Z,21.31
2022-08-29T19:58:36.547Z,21.29
2022-08-29T20:01:23.952Z,21.25
2022-08-29T20:04:11.762Z,21.20
2022-08-29T20:07:00.408Z,21.15
2022-08-29T20:09:47.905Z,21.12
2022-08-29T20:12:36.860Z,21.13
2022-08-29T20:15:30.899Z,21.09
2022-08-29T20:18:19.688Z,21.11
2022-08-29T20:21:06.955Z,21.12
2022-08-29T20:23:58.066Z,21.14
2022-08-29T20:26:47.899Z,21.17
2022-08-29T20:32:23.473Z,21.21
2022-08-29T20:35:10.917Z,21.20
2022-08-29T20:37:58.177Z,21.18
2022-08-29T20:40:46.921Z,21.20
2022-08-29T20:43:37.119Z,21.19
2022-08-29T20:46:26.438Z,21.20
2022-08-29T20:49:16.534Z,21.20
2022-08-29T20:52:05.596Z,21.18
2022-08-29T20:54:52.864Z,21.15
2022-08-29T20:57:41.140Z,21.15
2022-08-29T21:00:28.518Z,21.15
2022-08-29T21:03:34.535Z,21.15
2022-08-29T21:06:21.836Z,21.13
2022-08-29T21:09:09.118Z,21.10
2022-08-29T21:11:56.437Z,21.08
2022-08-29T21:14:43.984Z,21.06
2022-08-29T21:17:31.275Z,21.06
2022-08-29T21:20:18.657Z,21.03
2022-08-29T21:23:08.052Z,20.97
2022-08-29T21:25:57.612Z,20.97
2022-08-29T21:28:47.130Z,20.98
2022-08-29T21:31:35.399Z,20.97
2022-08-29T21:34:23.330Z,20.93
2022-08-29T21:37:10.653Z,20.95
2022-08-29T21:39:58.297Z,20.95
2022-08-29T21:42:45.593Z,20.94
2022-08-29T21:45:34.053Z,20.91
2022-08-29T21:48:21.355Z,20.88
2022-08-29T21:51:08.725Z,20.86
2022-08-29T21:53:57.268Z,20.88
2022-08-29T21:56:45.398Z,20.92
2022-08-29T21:59:32.645Z,20.91
2022-08-29T22:02:19.989Z,20.89
2022-08-29T22:05:07.544Z,20.92
2022-08-29T22:07:55.825Z,20.86
2022-08-29T22:10:45.172Z,20.86
2022-08-29T22:13:32.443Z,20.88
2022-08-29T22:16:30.204Z,20.87
2022-08-29T22:19:17.749Z,20.81
2022-08-29T22:22:05.105Z,20.78
2022-08-29T22:24:53.358Z,20.80
2022-08-29T22:27:40.645Z,20.79
2022-08-29T22:30:32.069Z,20.78
2022-08-29T22:33:20.064Z,20.78
2022-08-29T22:36:12.724Z,20.72
2022-08-29T22:39:00.031Z,20.70
2022-08-29T22:41:47.833Z,20.64
2022-08-29T22:45:02.387Z,20.65
2022-08-29T22:47:43.879Z,20.47
2022-08-29T22:50:31.104Z,20.56
2022-08-29T22:53:18.412Z,20.55
2022-08-29T22:56:05.964Z,20.59
2022-08-29T22:58:53.234Z,20.63
2022-08-29T23:01:43.329Z,20.64
2022-08-29T23:04:31.472Z,20.64
2022-08-29T23:07:19.373Z,20.65
2022-08-29T23:10:07.958Z,20.60
2022-08-29T23:12:55.227Z,20.61
2022-08-29T23:15:42.556Z,20.61
2022-08-29T23:18:29.818Z,20.57
2022-08-29T23:21:17.634Z,20.52
2022-08-29T23:24:06.985Z,20.46
2022-08-29T23:26:54.272Z,20.35
2022-08-29T23:29:42.028Z,20.29
2022-08-29T23:32:29.502Z,20.21
2022-08-29T23:35:16.757Z,20.15
2022-08-29T23:38:04.594Z,20.07
2022-08-29T23:40:57.467Z,19.99
2022-08-29T23:43:44.824Z,19.94
2022-08-29T23:46:32.183Z,19.86
2022-08-29T23:49:19.461Z,19.83
2022-08-29T23:52:06.901Z,19.77
2022-08-29T23:54:54.275Z,19.76
2022-08-29T23:57:41.629Z,19.74
